createdAt,value
2019-01-11T00:00:26.788Z,97416.01
2019-01-11T00:02:58.957Z,97419.50
2019-01-11T00:05:30.793Z,97423.18
2019-01-11T00:08:02.683Z,97428.86
2019-01-11T00:10:35.417Z,97426.57
2019-01-11T00:13:07.379Z,97422.89
2019-01-11T00:15:46.486Z,97414.88
2019-01-11T00:18:18.310Z,97417.06
2019-01-11T00:20:50.065Z,97409.36
2019-01-11T00:23:21.897Z,97406.38
2019-01-11T00:25:53.714Z,97406.97
2019-01-11T00:28:25.534Z,97407.64
2019-01-11T00:30:57.402Z,97409.09
2019-01-11T00:33:29.249Z,97418.94
2019-01-11T00:36:01.080Z,97417.67
2019-01-11T00:38:32.907Z,97408.42
2019-01-11T00:41:04.714Z,97406.22
2019-01-11T00:43:36.472Z,97412.64
2019-01-11T00:46:09.392Z,97414.75
2019-01-11T00:48:41.242Z,97410.53
2019-01-11T00:51:13.423Z,97418.94
2019-01-11T00:53:45.188Z,97427.94
2019-01-11T00:56:16.936Z,97424.53
2019-01-11T00:58:48.765Z,97420.77
2019-01-11T01:01:20.578Z,97426.80
2019-01-11T01:03:52.461Z,97430.27
2019-01-11T01:06:24.365Z,97415.61
2019-01-11T01:08:56.244Z,97417.96
2019-01-11T01:11:28.099Z,97423.10
2019-01-11T01:14:00.010Z,97426.47
2019-01-11T01:16:31.767Z,97425.63
2019-01-11T01:19:03.536Z,97428.89
2019-01-11T01:21:35.475Z,97421.60
2019-01-11T01:24:07.472Z,97418.80
2019-01-11T01:26:39.389Z,97419.42
2019-01-11T01:29:11.229Z,97420.59
2019-01-11T01:31:43.557Z,97422.65
2019-01-11T01:34:15.409Z,97421.09
2019-01-11T01:36:47.239Z,97427.14
2019-01-11T01:39:19.330Z,97427.51
2019-01-11T01:41:51.065Z,97429.31
2019-01-11T01:44:22.806Z,97425.17
2019-01-11T01:46:54.548Z,97431.81
2019-01-11T01:49:26.769Z,97439.63
2019-01-11T01:51:58.569Z,97441.29
2019-01-11T01:54:30.489Z,97438.14
2019-01-11T01:57:02.277Z,97429.20
2019-01-11T01:59:34.164Z,97430.84
2019-01-11T02:02:06.523Z,97429.56
2019-01-11T02:04:38.331Z,97428.98
2019-01-11T02:07:10.178Z,97430.84
2019-01-11T02:09:43.058Z,97434.00
2019-01-11T02:12:15.253Z,97425.13
2019-01-11T02:14:47.015Z,97426.72
2019-01-11T02:17:19.416Z,97421.05
2019-01-11T02:19:51.200Z,97425.36
2019-01-11T02:22:23.348Z,97421.02
2019-01-11T02:24:55.206Z,97419.78
2019-01-11T02:27:27.125Z,97418.63
2019-01-11T02:29:58.899Z,97423.23
2019-01-11T02:32:30.897Z,97421.19
2019-01-11T02:35:03.319Z,97425.54
2019-01-11T02:37:35.074Z,97421.78
2019-01-11T02:40:07.676Z,97418.19
2019-01-11T02:42:39.597Z,97424.66
2019-01-11T02:45:13.303Z,97419.06
2019-01-11T02:47:45.337Z,97418.09
2019-01-11T02:50:17.455Z,97412.95
2019-01-11T02:52:49.536Z,97417.78
2019-01-11T02:55:21.719Z,97412.73
2019-01-11T02:57:53.650Z,97417.38
2019-01-11T03:00:25.492Z,97413.57
2019-01-11T03:02:57.374Z,97416.59
2019-01-11T03:05:29.402Z,97406.08
2019-01-11T03:08:01.299Z,97412.55
2019-01-11T03:10:33.569Z,97408.34
2019-01-11T03:13:05.391Z,97404.00
2019-01-11T03:15:37.232Z,97402.09
2019-01-11T03:18:09.710Z,97405.20
2019-01-11T03:20:41.552Z,97411.09
2019-01-11T03:23:13.655Z,97402.67
2019-01-11T03:25:45.521Z,97396.47
2019-01-11T03:28:17.403Z,97401.95
2019-01-11T03:30:49.246Z,97399.39
2019-01-11T03:33:21.135Z,97401.56
2019-01-11T03:35:53.035Z,97405.46
2019-01-11T03:38:24.771Z,97412.60
2019-01-11T03:40:56.676Z,97407.14
2019-01-11T03:43:28.967Z,97408.25
2019-01-11T03:46:00.821Z,97410.11
2019-01-11T03:48:32.641Z,97406.25
2019-01-11T03:51:04.618Z,97401.11
2019-01-11T03:53:36.755Z,97403.34
2019-01-11T03:56:10.070Z,97402.35
2019-01-11T03:58:42.158Z,97399.39
2019-01-11T04:01:14.266Z,97400.98
2019-01-11T04:03:46.434Z,97398.81
2019-01-11T04:06:18.440Z,97397.08
2019-01-11T04:08:50.349Z,97402.97
2019-01-11T04:11:22.267Z,97399.11
2019-01-11T04:13:54.180Z,97402.58
2019-01-11T04:16:26.104Z,97403.91
2019-01-11T04:19:10.818Z,97406.52
2019-01-11T04:21:59.437Z,97411.45
2019-01-11T04:24:33.658Z,97410.51
2019-01-11T04:27:05.649Z,97414.41
2019-01-11T04:29:37.821Z,97413.57
2019-01-11T04:32:09.706Z,97406.92
2019-01-11T04:34:41.481Z,97409.40
2019-01-11T04:37:13.660Z,97410.37
2019-01-11T04:39:45.498Z,97408.55
2019-01-11T04:42:17.340Z,97413.96
2019-01-11T04:44:49.331Z,97405.98
2019-01-11T04:47:21.249Z,97404.52
2019-01-11T04:49:53.121Z,97411.83
2019-01-11T04:52:25.038Z,97412.23
2019-01-11T04:54:56.967Z,97408.77
2019-01-11T04:57:28.995Z,97406.24
2019-01-11T05:00:00.924Z,97408.27
2019-01-11T05:02:33.107Z,97404.47
2019-01-11T05:05:05.726Z,97409.83
2019-01-11T05:07:37.565Z,97405.52
2019-01-11T05:10:11.776Z,97402.45
2019-01-11T05:12:43.687Z,97407.52
2019-01-11T05:15:15.798Z,97400.94
2019-01-11T05:17:47.783Z,97403.28
2019-01-11T05:20:19.719Z,97414.86
2019-01-11T05:22:51.617Z,97411.94
2019-01-11T05:25:23.395Z,97415.91
2019-01-11T05:27:55.410Z,97412.89
2019-01-11T05:30:27.359Z,97407.69
2019-01-11T05:32:59.217Z,97406.77
2019-01-11T05:35:31.180Z,97405.88
2019-01-11T05:38:03.275Z,97404.35
2019-01-11T05:40:35.133Z,97403.36
2019-01-11T05:43:07.033Z,97405.84
2019-01-11T05:45:38.872Z,97403.20
2019-01-11T05:48:10.789Z,97411.47
2019-01-11T05:50:42.708Z,97409.95
2019-01-11T05:53:14.545Z,97413.15
2019-01-11T05:55:50.753Z,97410.34
2019-01-11T05:58:39.883Z,97409.63
2019-01-11T06:01:13.041Z,97408.61
2019-01-11T06:03:44.875Z,97407.66
2019-01-11T06:06:16.805Z,97408.11
2019-01-11T06:08:49.196Z,97408.34
2019-01-11T06:11:21.159Z,97415.67
2019-01-11T06:13:52.923Z,97416.56
2019-01-11T06:16:24.844Z,97411.47
2019-01-11T06:18:57.108Z,97407.16
2019-01-11T06:21:29.478Z,97409.10
2019-01-11T06:24:01.253Z,97404.75
2019-01-11T06:26:33.124Z,97400.34
2019-01-11T06:29:05.047Z,97408.11
2019-01-11T06:31:36.820Z,97403.22
2019-01-11T06:34:10.011Z,97401.67
2019-01-11T06:36:41.853Z,97400.78
2019-01-11T06:39:13.881Z,97400.34
2019-01-11T06:41:51.586Z,97393.31
2019-01-11T06:44:23.429Z,97398.52
2019-01-11T06:46:55.279Z,97402.59
2019-01-11T06:49:27.226Z,97396.44
2019-01-11T06:51:59.154Z,97392.83
2019-01-11T06:54:31.087Z,97400.70
2019-01-11T06:57:03.027Z,97396.39
2019-01-11T06:59:34.936Z,97392.89
2019-01-11T07:02:07.051Z,97394.77
2019-01-11T07:04:38.996Z,97390.31
2019-01-11T07:07:10.923Z,97394.66
2019-01-11T07:09:42.839Z,97393.72
2019-01-11T07:12:14.795Z,97384.96
2019-01-11T07:14:46.938Z,97394.87
2019-01-11T07:17:18.864Z,97390.30
2019-01-11T07:19:50.699Z,97391.14
2019-01-11T07:22:22.567Z,97393.13
2019-01-11T07:24:54.412Z,97390.45
2019-01-11T07:27:27.038Z,97406.10
2019-01-11T07:29:59.214Z,97364.27
2019-01-11T07:32:31.096Z,97397.78
2019-01-11T07:35:03.369Z,97400.75
2019-01-11T07:37:35.316Z,97396.78
2019-01-11T07:40:08.579Z,97396.00
2019-01-11T07:42:40.590Z,97395.17
2019-01-11T07:45:12.795Z,97398.41
2019-01-11T07:47:44.736Z,97391.63
2019-01-11T07:50:16.663Z,97402.69
2019-01-11T07:52:48.617Z,97406.61
2019-01-11T07:55:20.468Z,97400.90
2019-01-11T07:57:52.561Z,97397.82
2019-01-11T08:00:24.500Z,97393.30
2019-01-11T08:02:56.355Z,97398.07
2019-01-11T08:05:28.274Z,97396.42
2019-01-11T08:08:00.288Z,97395.63
2019-01-11T08:10:32.221Z,97398.03
2019-01-11T08:13:04.413Z,97397.77
2019-01-11T08:15:36.341Z,97397.45
2019-01-11T08:18:08.336Z,97390.28
2019-01-11T08:20:40.331Z,97395.50
2019-01-11T08:23:12.577Z,97394.21
2019-01-11T08:25:44.503Z,97397.45
2019-01-11T08:28:16.531Z,97397.38
2019-01-11T08:30:48.628Z,97392.66
2019-01-11T08:33:20.591Z,97400.14
2019-01-11T08:35:52.723Z,97394.42
2019-01-11T08:38:24.670Z,97390.48
2019-01-11T08:40:56.670Z,97394.99
2019-01-11T08:43:28.574Z,97393.05
2019-01-11T08:46:01.115Z,97387.00
2019-01-11T08:48:34.291Z,97398.02
2019-01-11T08:51:06.541Z,97399.52
2019-01-11T08:53:38.488Z,97405.42
2019-01-11T08:56:10.563Z,97405.02
2019-01-11T08:58:43.111Z,97401.04
2019-01-11T09:01:15.042Z,97397.42
2019-01-11T09:03:47.032Z,97405.26
2019-01-11T09:06:18.961Z,97397.14
2019-01-11T09:08:51.175Z,97391.12
2019-01-11T09:11:23.109Z,97395.77
2019-01-11T09:13:55.053Z,97387.59
2019-01-11T09:16:26.923Z,97391.44
2019-01-11T09:19:01.193Z,97388.28
2019-01-11T09:21:41.596Z,97379.41
2019-01-11T09:24:10.070Z,97384.15
2019-01-11T09:26:42.024Z,97386.02
2019-01-11T09:29:14.144Z,97384.70
2019-01-11T09:31:46.147Z,97382.25
2019-01-11T09:34:18.086Z,97383.78
2019-01-11T09:36:49.936Z,97383.64
2019-01-11T09:39:21.807Z,97389.47
2019-01-11T09:41:53.722Z,97392.02
2019-01-11T09:44:25.611Z,97390.08
2019-01-11T09:46:57.539Z,97392.30
2019-01-11T09:49:29.505Z,97385.52
2019-01-11T09:52:01.526Z,97386.34
2019-01-11T09:54:33.554Z,97385.63
2019-01-11T09:57:05.552Z,97380.43
2019-01-11T09:59:37.516Z,97378.87
2019-01-11T10:02:27.385Z,97380.19
2019-01-11T10:04:59.233Z,97376.70
2019-01-11T10:07:31.248Z,97382.34
2019-01-11T10:10:03.120Z,97375.72
2019-01-11T10:12:35.619Z,97377.22
2019-01-11T10:15:09.086Z,97373.74
2019-01-11T10:17:41.334Z,97369.69
2019-01-11T10:20:13.859Z,97363.94
2019-01-11T10:22:45.859Z,97370.00
2019-01-11T10:25:17.820Z,97358.20
2019-01-11T10:27:50.886Z,97372.45
2019-01-11T10:30:23.641Z,97366.98
2019-01-11T10:32:56.538Z,97367.15
2019-01-11T10:35:29.643Z,97367.93
2019-01-11T10:38:01.664Z,97369.86
2019-01-11T10:40:33.597Z,97369.03
2019-01-11T10:43:07.131Z,97370.77
2019-01-11T10:45:39.394Z,97360.62
2019-01-11T10:48:11.320Z,97360.12
2019-01-11T10:50:43.233Z,97359.44
2019-01-11T10:53:15.173Z,97367.03
2019-01-11T10:55:47.154Z,97366.56
2019-01-11T10:58:19.159Z,97359.28
2019-01-11T11:00:51.399Z,97362.25
2019-01-11T11:03:23.336Z,97354.06
2019-01-11T11:05:55.273Z,97349.20
2019-01-11T11:08:27.135Z,97345.84
2019-01-11T11:10:59.010Z,97343.15
2019-01-11T11:13:30.987Z,97342.13
2019-01-11T11:16:02.930Z,97334.58
2019-01-11T11:18:34.859Z,97338.11
2019-01-11T11:21:06.860Z,97338.38
2019-01-11T11:23:43.093Z,97330.05
2019-01-11T11:26:15.118Z,97334.75
2019-01-11T11:28:47.053Z,97336.88
2019-01-11T11:31:19.070Z,97325.77
2019-01-11T11:33:51.006Z,97326.51
2019-01-11T11:36:23.025Z,97324.20
2019-01-11T11:38:54.945Z,97318.61
2019-01-11T11:41:26.890Z,97316.47
2019-01-11T11:43:58.669Z,97311.66
2019-01-11T11:46:30.788Z,97304.42
2019-01-11T11:49:02.969Z,97305.83
2019-01-11T11:51:41.069Z,97312.95
2019-01-11T11:54:09.786Z,97298.31
2019-01-11T11:56:42.001Z,97296.97
2019-01-11T11:59:13.834Z,97295.63
2019-01-11T12:01:46.686Z,97289.88
2019-01-11T12:04:18.825Z,97283.21
2019-01-11T12:06:50.877Z,97285.51
2019-01-11T12:09:22.665Z,97277.38
2019-01-11T12:11:54.864Z,97272.02
2019-01-11T12:14:26.815Z,97281.15
2019-01-11T12:16:58.774Z,97276.58
2019-01-11T12:19:31.083Z,97270.77
2019-01-11T12:22:03.029Z,97264.54
2019-01-11T12:24:34.954Z,97257.60
2019-01-11T12:27:06.808Z,97250.87
2019-01-11T12:29:38.666Z,97255.15
2019-01-11T12:32:10.577Z,97251.78
2019-01-11T12:34:42.461Z,97253.02
2019-01-11T12:37:14.452Z,97263.17
2019-01-11T12:39:46.314Z,97268.61
2019-01-11T12:42:18.172Z,97258.17
2019-01-11T12:44:50.113Z,97255.78
2019-01-11T12:47:22.053Z,97260.98
2019-01-11T12:49:54.244Z,97251.23
2019-01-11T12:52:26.271Z,97258.00
2019-01-11T12:54:58.211Z,97252.28
2019-01-11T12:57:30.162Z,97248.14
2019-01-11T13:00:02.497Z,97246.62
2019-01-11T13:02:34.414Z,97246.41
2019-01-11T13:05:08.803Z,97250.00
2019-01-11T13:07:40.745Z,97242.16
2019-01-11T13:10:15.648Z,97234.52
2019-01-11T13:12:47.758Z,97236.55
2019-01-11T13:15:24.525Z,97229.74
2019-01-11T13:17:57.426Z,97225.27
2019-01-11T13:20:32.474Z,97224.48
2019-01-11T13:23:04.472Z,97218.14
2019-01-11T13:25:36.657Z,97219.33
2019-01-11T13:28:09.459Z,97212.37
2019-01-11T13:30:41.414Z,97204.76
2019-01-11T13:33:13.499Z,97210.20
2019-01-11T13:35:45.475Z,97214.84
2019-01-11T13:38:17.268Z,97215.36
2019-01-11T13:40:49.142Z,97218.11
2019-01-11T13:43:21.335Z,97213.41
2019-01-11T13:45:53.355Z,97216.11
2019-01-11T13:48:25.292Z,97220.72
2019-01-11T13:50:57.473Z,97214.17
2019-01-11T13:53:29.529Z,97218.30
2019-01-11T13:56:01.483Z,97220.10
2019-01-11T13:58:33.434Z,97211.11
2019-01-11T14:01:05.642Z,97219.87
2019-01-11T14:03:37.618Z,97209.17
2019-01-11T14:06:10.523Z,97211.95
2019-01-11T14:08:42.537Z,97213.94
2019-01-11T14:11:14.547Z,97222.35
2019-01-11T14:13:47.752Z,97202.17
2019-01-11T14:16:19.946Z,97204.11
2019-01-11T14:18:51.891Z,97198.86
2019-01-11T14:21:23.754Z,97203.95
2019-01-11T14:23:55.606Z,97213.76
2019-01-11T14:26:27.697Z,97215.46
2019-01-11T14:28:59.594Z,97212.42
2019-01-11T14:31:31.565Z,97217.42
2019-01-11T14:34:03.483Z,97218.13
2019-01-11T14:36:35.665Z,97224.09
2019-01-11T14:39:09.827Z,97219.90
2019-01-11T14:41:42.131Z,97221.86
2019-01-11T14:44:13.998Z,97222.62
2019-01-11T14:46:46.024Z,97211.30
2019-01-11T14:49:17.851Z,97211.61
2019-01-11T14:51:49.795Z,97204.73
2019-01-11T14:54:21.724Z,97210.69
2019-01-11T14:56:53.654Z,97218.33
2019-01-11T14:59:25.596Z,97223.59
2019-01-11T15:01:57.714Z,97221.91
2019-01-11T15:04:29.907Z,97219.30
2019-01-11T15:07:01.704Z,97222.45
2019-01-11T15:09:34.699Z,97222.58
2019-01-11T15:12:06.836Z,97220.97
2019-01-11T15:14:39.005Z,97212.37
2019-01-11T15:17:11.011Z,97213.53
2019-01-11T15:19:42.924Z,97211.20
2019-01-11T15:22:14.780Z,97214.95
2019-01-11T15:24:46.688Z,97213.72
2019-01-11T15:27:18.620Z,97200.66
2019-01-11T15:29:50.493Z,97205.39
2019-01-11T15:32:22.696Z,97195.67
2019-01-11T15:34:54.628Z,97202.05
2019-01-11T15:37:26.578Z,97199.53
2019-01-11T15:39:58.430Z,97198.19
2019-01-11T15:42:30.373Z,97199.70
2019-01-11T15:45:02.234Z,97208.17
2019-01-11T15:47:35.054Z,97206.27
2019-01-11T15:50:10.186Z,97211.04
2019-01-11T15:52:42.175Z,97210.87
2019-01-11T15:55:14.145Z,97218.89
2019-01-11T15:57:46.088Z,97218.83
2019-01-11T16:00:21.710Z,97215.00
2019-01-11T16:02:53.707Z,97208.50
2019-01-11T16:05:25.748Z,97211.75
2019-01-11T16:07:57.704Z,97211.59
2019-01-11T16:10:29.604Z,97218.66
2019-01-11T16:13:48.565Z,97213.17
2019-01-11T16:16:53.481Z,97210.58
2019-01-11T16:19:25.444Z,97207.53
2019-01-11T16:21:57.398Z,97199.41
2019-01-11T16:24:29.437Z,97204.02
2019-01-11T16:27:01.453Z,97197.89
2019-01-11T16:29:33.402Z,97194.89
2019-01-11T16:32:05.461Z,97195.83
2019-01-11T16:34:37.628Z,97189.25
2019-01-11T16:37:09.912Z,97187.90
2019-01-11T16:39:41.976Z,97185.16
2019-01-11T16:42:13.955Z,97182.13
2019-01-11T16:44:46.003Z,97184.58
2019-01-11T16:47:17.974Z,97189.48
2019-01-11T16:49:49.926Z,97175.30
2019-01-11T16:52:21.889Z,97178.64
2019-01-11T16:54:53.772Z,97183.39
2019-01-11T16:57:26.091Z,97183.23
2019-01-11T16:59:58.139Z,97182.94
2019-01-11T17:02:36.484Z,97182.00
2019-01-11T17:05:03.963Z,97177.64
2019-01-11T17:07:36.077Z,97178.16
2019-01-11T17:10:10.128Z,97175.17
2019-01-11T17:12:42.186Z,97177.73
2019-01-11T17:15:16.899Z,97174.48
2019-01-11T17:17:48.798Z,97179.30
2019-01-11T17:20:20.760Z,97176.06
2019-01-11T17:22:53.347Z,97182.89
2019-01-11T17:25:25.380Z,97178.28
2019-01-11T17:27:57.446Z,97179.80
2019-01-11T17:30:29.503Z,97177.71
2019-01-11T17:33:01.587Z,97180.23
2019-01-11T17:35:33.609Z,97181.31
2019-01-11T17:38:05.694Z,97177.64
2019-01-11T17:40:37.839Z,97181.55
2019-01-11T17:43:09.827Z,97176.45
2019-01-11T17:45:41.782Z,97180.61
2019-01-11T17:48:13.862Z,97177.96
2019-01-11T17:50:45.865Z,97177.45
2019-01-11T17:53:17.882Z,97174.19
2019-01-11T17:55:50.353Z,97177.38
2019-01-11T17:58:22.318Z,97178.62
2019-01-11T18:00:54.189Z,97179.30
2019-01-11T18:03:26.386Z,97181.52
2019-01-11T18:05:58.391Z,97180.61
2019-01-11T18:08:30.432Z,97183.05
2019-01-11T18:11:02.429Z,97187.98
2019-01-11T18:13:34.534Z,97187.38
2019-01-11T18:16:07.260Z,97184.66
2019-01-11T18:18:39.228Z,97175.25
2019-01-11T18:21:11.590Z,97176.62
2019-01-11T18:23:43.518Z,97178.95
2019-01-11T18:26:15.509Z,97173.39
2019-01-11T18:28:47.655Z,97181.69
2019-01-11T18:31:20.837Z,97175.49
2019-01-11T18:33:53.218Z,97178.83
2019-01-11T18:36:25.474Z,97189.75
2019-01-11T18:38:57.781Z,97186.35
2019-01-11T18:41:30.078Z,97191.41
2019-01-11T18:44:02.545Z,97189.97
2019-01-11T18:46:34.677Z,97181.60
2019-01-11T18:49:07.088Z,97185.49
2019-01-11T18:51:39.296Z,97184.28
2019-01-11T18:54:12.184Z,97194.30
2019-01-11T18:56:44.485Z,97187.59
2019-01-11T18:59:16.789Z,97184.95
2019-01-11T19:01:49.053Z,97182.70
2019-01-11T19:04:21.203Z,97172.14
2019-01-11T19:06:53.889Z,97188.16
2019-01-11T19:09:26.190Z,97186.57
2019-01-11T19:11:58.671Z,97195.47
2019-01-11T19:14:31.069Z,97194.39
2019-01-11T19:17:03.534Z,97195.30
2019-01-11T19:19:35.817Z,97190.77
2019-01-11T19:22:07.997Z,97192.05
2019-01-11T19:24:40.188Z,97193.04
2019-01-11T19:27:12.598Z,97201.45
2019-01-11T19:29:44.826Z,97190.14
2019-01-11T19:32:17.122Z,97188.41
2019-01-11T19:34:49.519Z,97203.95
2019-01-11T19:37:22.406Z,97202.44
2019-01-11T19:39:54.788Z,97204.89
2019-01-11T19:42:27.440Z,97209.05
2019-01-11T19:45:00.975Z,97202.91
2019-01-11T19:47:33.342Z,97205.64
2019-01-11T19:50:08.492Z,97195.08
2019-01-11T19:52:40.846Z,97189.70
2019-01-11T19:55:13.430Z,97196.08
2019-01-11T19:57:46.843Z,97192.13
2019-01-11T20:00:25.350Z,97196.37
2019-01-11T20:02:57.838Z,97187.19
2019-01-11T20:05:31.416Z,97187.50
2019-01-11T20:08:03.946Z,97193.86
2019-01-11T20:10:36.949Z,97197.20
2019-01-11T20:13:10.447Z,97193.09
2019-01-11T20:15:43.030Z,97193.70
2019-01-11T20:18:15.217Z,97194.32
2019-01-11T20:20:47.693Z,97192.95
2019-01-11T20:23:19.916Z,97187.41
2019-01-11T20:25:52.169Z,97191.67
2019-01-11T20:28:24.692Z,97182.95
2019-01-11T20:30:56.822Z,97181.78
2019-01-11T20:33:29.161Z,97185.00
2019-01-11T20:36:02.265Z,97184.00
2019-01-11T20:38:34.877Z,97181.65
2019-01-11T20:41:07.051Z,97190.83
2019-01-11T20:43:39.257Z,97189.02
2019-01-11T20:46:11.845Z,97183.39
2019-01-11T20:48:44.060Z,97189.16
2019-01-11T20:51:16.451Z,97182.42
2019-01-11T20:53:48.682Z,97182.11
2019-01-11T20:56:21.163Z,97184.24
2019-01-11T20:58:53.596Z,97180.37
2019-01-11T21:01:26.081Z,97187.50
2019-01-11T21:03:58.419Z,97187.25
2019-01-11T21:06:30.935Z,97192.56
2019-01-11T21:09:04.081Z,97189.24
2019-01-11T21:11:37.348Z,97192.12
2019-01-11T21:14:10.380Z,97186.58
2019-01-11T21:16:42.750Z,97190.74
2019-01-11T21:19:15.156Z,97195.77
2019-01-11T21:21:48.166Z,97192.52
2019-01-11T21:24:20.513Z,97194.26
2019-01-11T21:26:52.772Z,97199.47
2019-01-11T21:29:25.246Z,97211.19
2019-01-11T21:31:57.443Z,97198.77
2019-01-11T21:34:30.099Z,97199.78
2019-01-11T21:37:03.163Z,97194.23
2019-01-11T21:39:35.610Z,97194.55
2019-01-11T21:42:08.075Z,97193.02
2019-01-11T21:44:40.699Z,97190.08
2019-01-11T21:47:12.927Z,97180.87
2019-01-11T21:49:45.093Z,97186.31
2019-01-11T21:52:17.331Z,97193.02
2019-01-11T21:54:49.679Z,97190.05
2019-01-11T21:57:21.932Z,97189.80
2019-01-11T21:59:53.900Z,97191.72
2019-01-11T22:02:26.066Z,97195.95
2019-01-11T22:04:58.134Z,97195.45
2019-01-11T22:07:30.356Z,97193.25
2019-01-11T22:10:05.889Z,97189.14
2019-01-11T22:12:38.095Z,97198.53
2019-01-11T22:15:14.013Z,97201.03
2019-01-11T22:17:46.229Z,97196.19
2019-01-11T22:20:18.397Z,97195.80
2019-01-11T22:22:50.539Z,97193.81
2019-01-11T22:25:22.509Z,97192.20
2019-01-11T22:27:54.501Z,97189.94
2019-01-11T22:30:30.553Z,97191.92
2019-01-11T22:33:00.927Z,97187.66
2019-01-11T22:35:32.893Z,97186.82
2019-01-11T22:38:04.964Z,97187.03
2019-01-11T22:40:37.159Z,97189.97
2019-01-11T22:43:10.203Z,97184.77
2019-01-11T22:45:42.354Z,97193.55
2019-01-11T22:48:14.298Z,97191.61
2019-01-11T22:50:46.254Z,97193.73
2019-01-11T22:53:18.245Z,97189.67
2019-01-11T22:55:50.326Z,97198.00
2019-01-11T22:58:22.255Z,97198.91
2019-01-11T23:01:56.896Z,97199.88
2019-01-11T23:04:28.952Z,97194.77
2019-01-11T23:07:29.194Z,97202.80
2019-01-11T23:10:31.128Z,97198.63
2019-01-11T23:13:16.078Z,97195.30
2019-01-11T23:15:56.961Z,97193.73
2019-01-11T23:18:31.259Z,97187.09
2019-01-11T23:21:07.025Z,97192.91
2019-01-11T23:23:39.046Z,97199.30
2019-01-11T23:26:10.920Z,97202.66
2019-01-11T23:28:43.480Z,97205.83
2019-01-11T23:31:15.639Z,97206.73
2019-01-11T23:33:47.576Z,97208.41
2019-01-11T23:36:19.498Z,97209.56
2019-01-11T23:38:51.490Z,97214.41
2019-01-11T23:41:23.458Z,97208.86
2019-01-11T23:43:55.579Z,97212.22
2019-01-11T23:46:27.753Z,97202.80
2019-01-11T23:48:59.896Z,97208.88
2019-01-11T23:51:32.271Z,97205.55
2019-01-11T23:54:04.457Z,97204.98
2019-01-11T23:56:36.633Z,97207.77
2019-01-11T23:59:09.481Z,97208.14
